Appleton, Illinois
Current Conditions -  °F | °C
As of 12:35 PM on Thursday 23 Oct 2014 (Local Time) from KGBG Reporting Station
Overcast Overcast  
Wind Chill: 55°   Ceiling: 4100
Heat Index: 55°   Visibility: 10mi
Dew Point: 44°   Wind: 12mph
Humidity: 67%   Direction: 170°S
Pressure: 30.13"   Gusts: 16mph
Location:  40.9602°N, 90.1517°W
Report Text: KGBG 231735Z AUTO 17010G14KT 10SM BKN041 BKN050 OVC070 13/07 A3013 RMK AO2 T01250066
Loading
Personal Weather Stations






























Interactive Weather Map
Tropical Storm Tracking
New forecast layout! Learn more

10-Day Weather Forecast

Advertisements
Track Severe Weather on mobile